Time;durP1;ratioP1;P1;durP2;ratioP2;P2;SDS_P1;SDS_P2;PMS_P1;PMS_P2;Temp;Humidity;BMP_temperature;BMP_pressure;BME280_temperature;BME280_humidity;BME280_pressure;Samples;Min_cycle;Max_cycle;Signal;HPM_P1;HPM_P2
2021/11/01 00:01:55;;;;;;;;;;;;;;;6.52;100.00;100731.53;4996302;28;20125;-56
2021/11/01 00:04:43;;;;;;;43.13;21.35;;;;;;;6.49;100.00;100735.88;5019894;28;20486;-63
2021/11/01 00:07:29;;;;;;;45.30;22.42;;;;;;;6.51;100.00;100729.78;5006080;28;20052;-55
2021/11/01 00:10:14;;;;;;;47.00;22.33;;;;;;;6.53;100.00;100727.16;5018545;28;20768;-60
2021/11/01 00:12:59;;;;;;;45.92;21.23;;;;;;;6.63;100.00;100732.53;5021013;28;20088;-58
2021/11/01 00:15:44;;;;;;;44.00;22.52;;;;;;;6.67;100.00;100729.06;5020980;28;20069;-59
2021/11/01 00:18:29;;;;;;;;;;;;;;;6.73;100.00;100723.84;5023671;28;20061;-58
2021/11/01 00:21:14;;;;;;;42.70;21.08;;;;;;;6.76;100.00;100726.53;5024880;28;19924;-55
2021/11/01 00:23:59;;;;;;;43.17;22.02;;;;;;;6.71;100.00;100735.25;5000552;28;20049;-65
2021/11/01 00:26:46;;;;;;;46.88;22.92;;;;;;;6.57;100.00;100727.19;5015050;28;20048;-55
2021/11/01 00:29:30;;;;;;;42.50;21.67;;;;;;;6.65;100.00;100722.03;5023217;28;20570;-56
2021/11/01 00:32:16;;;;;;;41.95;22.85;;;;;;;6.59;100.00;100729.84;5028543;28;20082;-58
2021/11/01 00:35:01;;;;;;;45.60;22.08;;;;;;;6.48;100.00;100731.50;4999019;28;20071;-53
2021/11/01 00:37:48;;;;;;;41.22;22.27;;;;;;;6.50;100.00;100732.38;5024396;28;20057;-65
2021/11/01 00:40:34;;;;;;;43.30;22.25;;;;;;;6.43;100.00;100733.16;5009432;28;20112;-56
2021/11/01 00:43:18;;;;;;;41.22;21.90;;;;;;;6.42;100.00;100731.41;5026117;28;20099;-59
2021/11/01 00:46:05;;;;;;;;;;;;;;;6.32;100.00;100735.69;5027543;28;20084;-56
2021/11/01 00:48:53;;;;;;;40.53;20.20;;;;;;;6.52;100.00;100731.53;5014045;28;19936;-58
2021/11/01 00:51:41;;;;;;;43.20;22.55;;;;;;;6.46;100.00;100736.75;5021910;28;20056;-57
2021/11/01 00:54:27;;;;;;;44.22;21.38;;;;;;;6.40;100.00;100733.13;5006715;28;20056;-58
2021/11/01 00:57:11;;;;;;;44.45;21.35;;;;;;;6.32;100.00;100738.31;5021637;28;20060;-60
2021/11/01 00:59:59;;;;;;;42.80;21.30;;;;;;;6.38;100.00;100735.75;5025935;28;20111;-59
2021/11/01 01:02:46;;;;;;;41.58;20.08;;;;;;;6.35;100.00;100734.81;5015662;28;20088;-58
2021/11/01 01:05:31;;;;;;;41.55;22.10;;;;;;;6.30;100.00;100733.91;5026692;28;20056;-58
2021/11/01 01:08:21;;;;;;;42.63;21.67;;;;;;;6.30;100.00;100733.91;5026206;28;20064;-55
2021/11/01 01:11:06;;;;;;;40.58;21.42;;;;;;;6.20;100.00;100726.72;5026153;28;20060;-59
2021/11/01 01:13:53;;;;;;;41.38;21.20;;;;;;;6.36;100.00;100732.22;5005955;28;20103;-63
2021/11/01 01:16:47;;;;;;;41.22;22.83;;;;;;;6.36;100.00;100732.22;5020454;28;20550;-55
2021/11/01 01:19:42;;;;;;;45.65;21.77;;;;;;;6.25;100.00;100728.56;5010708;28;20052;-63
2021/11/01 01:22:30;;;;;;;;;;;;;;;6.14;100.00;100721.41;5022461;28;20191;-58
2021/11/01 01:25:21;;;;;;;44.97;21.73;;;;;;;6.12;100.00;100715.22;5026925;28;20029;-56
2021/11/01 01:28:09;;;;;;;41.25;21.88;;;;;;;6.01;100.00;100716.84;5024908;28;20115;-63
2021/11/01 01:30:55;;;;;;;43.85;22.05;;;;;;;6.06;100.00;100715.16;5022701;28;20548;-71
2021/11/01 01:33:40;;;;;;;40.63;21.67;;;;;;;6.01;100.00;100717.72;5025775;28;20048;-60
2021/11/01 01:36:26;;;;;;;44.17;23.02;;;;;;;5.98;100.00;100712.44;5013052;28;20098;-58
2021/11/01 01:39:10;;;;;;;42.40;22.42;;;;;;;6.08;100.00;100716.94;5025780;28;20099;-58
2021/11/01 01:41:56;;;;;;;39.60;20.40;;;;;;;6.19;100.00;100707.44;5006402;28;20124;-67
2021/11/01 01:44:41;;;;;;;43.40;21.83;;;;;;;6.16;100.00;100714.38;5018955;28;20049;-60
2021/11/01 01:47:25;;;;;;;47.83;21.52;;;;;;;6.26;100.00;100709.28;5018188;28;20051;-59
2021/11/01 01:50:12;;;;;;;41.35;21.67;;;;;;;6.19;100.00;100717.97;5008607;28;20133;-63
2021/11/01 01:52:57;;;;;;;44.38;21.85;;;;;;;6.04;100.00;100722.13;4992989;28;20123;-58
2021/11/01 01:55:42;;;;;;;;;;;;;;;6.14;100.00;100719.66;4996458;28;20091;-66
2021/11/01 01:58:29;;;;;;;44.17;20.65;;;;;;;6.19;100.00;100712.69;5030188;28;19987;-58
2021/11/01 02:01:17;;;;;;;41.15;20.90;;;;;;;6.17;100.00;100714.41;4997152;28;20056;-65
2021/11/01 02:04:03;;;;;;;41.90;21.40;;;;;;;6.16;100.00;100715.28;5028110;28;20470;-56
2021/11/01 02:07:08;;;;;;;43.13;21.20;;;;;;;6.25;100.00;100719.78;5026475;28;20056;-57
2021/11/01 02:10:01;;;;;;;41.33;21.20;;;;;;;6.20;100.00;100726.72;5011225;28;20393;-62
2021/11/01 02:12:57;;;;;;;41.50;21.15;;;;;;;6.21;100.00;100725.88;5027920;28;20056;-58
2021/11/01 02:15:50;;;;;;;42.30;21.17;;;;;;;6.35;100.00;100730.44;5026785;28;20059;-59
2021/11/01 02:18:36;;;;;;;39.47;21.05;;;;;;;6.50;100.00;100724.47;5024355;28;20137;-60
2021/11/01 02:21:42;;;;;;;40.80;21.08;;;;;;;6.66;100.00;100724.66;5025424;28;20057;-59
2021/11/01 02:24:48;;;;;;;39.92;21.55;;;;;;;6.39;100.00;100719.09;5022162;28;20215;-60
2021/11/01 02:27:37;;;;;;;41.28;20.35;;;;;;;6.22;100.00;100723.28;5019006;28;20048;-61
2021/11/01 02:30:22;;;;;;;40.58;19.75;;;;;;;6.35;100.00;100726.91;5025480;28;20107;-59
2021/11/01 02:33:08;;;;;;;44.92;22.42;;;;;;;6.20;100.00;100722.34;5026454;28;20060;-61
2021/11/01 02:35:55;;;;;;;42.22;22.02;;;;;;;6.03;100.00;100726.53;5023984;28;20122;-56
2021/11/01 02:38:40;;;;;;;44.92;21.23;;;;;;;6.03;100.00;100730.91;5023256;28;20045;-65
2021/11/01 02:41:30;;;;;;;38.95;20.65;;;;;;;5.99;100.00;100716.81;5008596;28;20507;-62
2021/11/01 02:44:15;;;;;;;44.50;21.88;;;;;;;5.93;100.00;100721.13;4988980;28;20414;-58
2021/11/01 02:47:00;;;;;;;41.33;21.35;;;;;;;5.82;100.00;100718.34;5021994;28;20072;-56
2021/11/01 02:49:45;;;;;;;41.28;22.00;;;;;;;5.83;100.00;100713.94;5011233;28;20416;-55
2021/11/01 02:52:31;;;;;;;43.05;20.95;;;;;;;5.76;100.00;100712.06;5030457;28;20059;-65
2021/11/01 02:55:20;;;;;;;42.03;21.60;;;;;;;5.78;100.00;100721.78;5014453;28;20571;-57
2021/11/01 02:58:08;;;;;;;39.72;20.73;;;;;;;5.75;100.00;100728.72;5007652;28;20128;-61
2021/11/01 03:00:53;;;;;;;41.80;22.27;;;;;;;5.68;100.00;100727.75;5026350;28;20095;-59
2021/11/01 03:03:39;;;;;;;40.67;21.92;;;;;;;5.59;100.00;100719.72;5016257;28;20533;-57
2021/11/01 03:06:28;;;;;;;41.28;21.88;;;;;;;5.65;100.00;100726.81;5023255;28;20148;-62
2021/11/01 03:09:13;;;;;;;42.35;21.90;;;;;;;5.61;100.00;100722.38;5026933;28;20056;-65
2021/11/01 03:12:00;;;;;;;40.30;20.75;;;;;;;5.63;100.00;100721.53;5013243;28;20068;-59
2021/11/01 03:14:54;;;;;;;45.65;21.92;;;;;;;5.62;100.00;100725.00;5011323;28;20424;-54
2021/11/01 03:17:47;;;;;;;41.03;21.15;;;;;;;5.64;100.00;100725.94;5026218;28;20056;-52
2021/11/01 03:20:38;;;;;;;42.05;21.40;;;;;;;5.73;100.00;100715.53;4994782;28;20130;-55
2021/11/01 03:23:33;;;;;;;42.90;22.25;;;;;;;5.77;100.00;100727.00;5010547;28;20206;-57
2021/11/01 03:26:21;;;;;;;40.88;21.55;;;;;;;5.73;100.00;100725.19;4995427;28;20055;-54
2021/11/01 03:29:09;;;;;;;40.47;22.23;;;;;;;5.60;100.00;100720.59;5018743;28;20111;-53
2021/11/01 03:31:56;;;;;;;42.25;22.02;;;;;;;5.53;100.00;100713.50;5013912;28;20533;-59
2021/11/01 03:34:43;;;;;;;44.03;21.38;;;;;;;5.51;100.00;100716.09;5028313;28;20056;-55
2021/11/01 03:37:29;;;;;;;39.75;21.05;;;;;;;5.55;100.00;100712.66;5003415;28;20056;-63
2021/11/01 03:40:19;;;;;;;37.55;20.75;;;;;;;5.53;100.00;100710.88;4996115;28;20056;-56
2021/11/01 03:43:05;;;;;;;40.50;21.20;;;;;;;5.52;100.00;100719.59;5007888;28;20052;-57
2021/11/01 03:45:50;;;;;;;42.42;21.85;;;;;;;5.38;100.00;100713.25;5019211;28;20044;-57
2021/11/01 03:48:42;;;;;;;42.47;20.67;;;;;;;5.34;100.00;100714.06;5025307;28;20056;-57
2021/11/01 03:54:30;;;;;;;40.10;20.52;;;;;;;5.32;100.00;100710.50;5025015;28;20051;-64
2021/11/01 03:57:16;;;;;;;41.40;20.92;;;;;;;5.23;100.00;100706.00;5005810;28;20072;-58
2021/11/01 04:00:05;;;;;;;40.28;20.45;;;;;;;5.36;100.00;100713.22;5023069;28;20091;-59
2021/11/01 04:02:55;;;;;;;39.42;20.38;;;;;;;5.41;100.00;100702.78;5008414;28;20099;-68
2021/11/01 04:05:39;;;;;;;43.40;20.85;;;;;;;5.53;100.00;100706.47;5021820;28;20080;-56
2021/11/01 04:08:24;;;;;;;42.47;20.98;;;;;;;5.51;100.00;100708.19;5029193;28;20049;-66
2021/11/01 04:11:11;;;;;;;40.22;21.27;;;;;;;5.48;100.00;100702.00;4988823;28;20081;-62
2021/11/01 04:14:00;;;;;;;42.72;21.55;;;;;;;5.29;100.00;100698.19;5024456;28;20136;-59
2021/11/01 04:16:48;;;;;;;39.55;21.45;;;;;;;5.22;100.00;100696.31;5010158;28;20125;-57
2021/11/01 04:19:37;;;;;;;46.08;22.52;;;;;;;5.17;100.00;100697.13;5013914;28;20052;-61
2021/11/01 04:22:23;;;;;;;43.20;21.40;;;;;;;5.15;100.00;100701.47;5013487;28;20417;-64
2021/11/01 04:25:10;;;;;;;44.95;21.30;;;;;;;5.13;100.00;100690.06;5008219;28;20425;-63
2021/11/01 04:27:55;;;;;;;39.28;21.17;;;;;;;5.26;100.00;100703.41;5023908;28;20068;-63
2021/11/01 04:30:43;;;;;;;46.85;22.95;;;;;;;5.29;100.00;100705.22;5007954;28;20592;-66
2021/11/01 04:33:29;;;;;;;43.53;22.02;;;;;;;5.20;100.00;100700.69;5019845;28;20413;-59
2021/11/01 04:36:14;;;;;;;44.53;23.27;;;;;;;5.16;100.00;100701.50;5025505;28;20057;-61
2021/11/01 04:39:25;;;;;;;43.88;23.48;;;;;;;5.15;100.00;100702.38;5019284;28;20165;-64
2021/11/01 04:54:04;;;;;;;41.03;22.00;;;;;;;5.36;100.00;100705.34;5024274;28;20047;-65
2021/11/01 04:56:51;;;;;;;39.97;22.17;;;;;;;5.22;100.00;100705.97;5026535;28;20092;-64
2021/11/01 04:59:39;;;;;;;45.33;23.38;;;;;;;5.13;100.00;100704.06;5015442;28;20180;-60
2021/11/01 05:02:25;;;;;;;41.33;22.38;;;;;;;5.16;100.00;100709.38;5026544;28;20060;-60
2021/11/01 05:05:11;;;;;;;45.63;22.98;;;;;;;5.03;100.00;100706.53;5010705;28;20484;-65
2021/11/01 05:07:58;;;;;;;45.97;23.95;;;;;;;5.01;100.00;100709.13;5027513;28;20075;-59
2021/11/01 05:10:50;;;;;;;43.97;22.38;;;;;;;5.09;100.00;100715.41;5019230;28;20347;-55
2021/11/01 05:13:37;;;;;;;39.45;22.63;;;;;;;5.20;100.00;100710.31;4998723;28;20048;-56
2021/11/01 05:19:50;;;;;;;46.72;24.42;;;;;;;5.21;100.00;100730.50;4946479;28;20143;-56
2021/11/01 05:25:33;;;;;;;42.10;22.02;;;;;;;5.32;100.00;100711.41;4937113;28;20698;-62
2021/11/01 05:31:14;;;;;;;46.47;25.27;;;;;;;5.45;100.00;100723.88;4932376;29;20158;-53
2021/11/01 05:34:09;;;;;;;48.97;23.73;;;;;;;5.50;100.00;100729.22;4945072;28;20468;-63
2021/11/01 05:36:54;;;;;;;51.03;24.00;;;;;;;5.63;100.00;100726.81;4944944;29;20058;-62
2021/11/01 05:39:39;;;;;;;47.03;23.88;;;;;;;5.69;100.00;100718.97;4931497;29;20086;-59
2021/11/01 05:42:24;;;;;;;49.92;24.83;;;;;;;5.74;100.00;100727.81;4943041;28;20045;-53
2021/11/01 05:45:10;;;;;;;43.63;24.15;;;;;;;5.72;100.00;100731.28;4933126;28;20055;-57
2021/11/01 05:48:01;;;;;;;49.45;26.20;;;;;;;5.67;100.00;100732.97;4944457;28;20264;-64
2021/11/01 05:50:46;;;;;;;49.60;24.73;;;;;;;5.62;100.00;100735.53;4927635;29;20477;-59
2021/11/01 05:53:37;;;;;;;51.80;24.88;;;;;;;5.68;100.00;100726.84;4962463;28;20821;-57
2021/11/01 05:56:30;;;;;;;52.20;25.90;;;;;;;5.73;100.00;100733.09;5026280;28;20060;-63
2021/11/01 06:05:22;;;;;;;55.58;28.30;;;;;;;5.76;100.00;100720.84;5009720;28;20049;-56
2021/11/01 06:08:42;;;;;;;49.80;24.15;;;;;;;5.94;100.00;100733.41;5011453;28;20554;-56
2021/11/01 06:14:35;;;;;;;47.67;25.13;;;;;;;5.90;100.00;100740.41;4969013;28;20153;-71
2021/11/01 06:17:21;;;;;;;44.55;23.98;;;;;;;5.96;100.00;100742.19;4965547;28;20426;-65
2021/11/01 06:20:06;;;;;;;44.65;24.83;;;;;;;5.96;100.00;100744.84;4964426;28;20491;-63
2021/11/01 06:22:53;;;;;;;46.05;23.30;;;;;;;6.01;100.00;100746.66;4952334;28;20483;-63
2021/11/01 06:25:38;;;;;;;44.47;23.95;;;;;;;6.04;100.00;100746.72;4965151;28;20880;-58
2021/11/01 06:28:23;;;;;;;46.78;24.83;;;;;;;6.11;100.00;100747.69;4964415;28;20050;-67
2021/11/01 06:31:17;;;;;;;47.47;24.98;;;;;;;6.29;100.00;100753.19;4966201;28;20049;-64
2021/11/01 06:34:36;;;;;;;50.67;24.38;;;;;;;6.35;100.00;100751.53;4963258;28;20564;-60
2021/11/01 06:40:37;;;;;;;51.78;24.83;;;;;;;6.45;100.00;100742.00;4964882;28;20050;-63
2021/11/01 06:43:29;;;;;;;45.60;24.60;;;;;;;6.55;100.00;100736.84;4966004;28;20049;-54
2021/11/01 06:49:44;;;;;;;47.72;24.90;;;;;;;6.57;100.00;100743.00;5017141;28;20099;-57
2021/11/01 06:55:54;;;;;;;46.78;24.10;;;;;;;6.86;100.00;100754.75;5025998;28;20068;-60
2021/11/01 06:58:40;;;;;;;48.88;24.23;;;;;;;6.80;100.00;100754.69;5015616;28;22046;-60
2021/11/01 07:23:24;;;;;;;41.42;23.27;;;;;;;7.78;100.00;100758.19;4954878;28;20054;-65
2021/11/01 08:21:40;;;;;;;40.07;22.00;;;;;;;18.12;77.78;100767.03;4887750;29;20096;-61
2021/11/01 09:03:28;;;;;;;31.15;19.98;;;;;;;23.40;41.77;100757.03;4942986;29;20514;-57
2021/11/01 09:06:38;;;;;;;30.60;19.30;;;;;;;22.32;43.65;100753.06;4937227;28;20054;-59
2021/11/01 09:21:36;;;;;;;29.92;19.23;;;;;;;22.11;47.07;100743.34;4962501;28;20092;-59
2021/11/01 09:27:21;;;;;;;29.50;19.08;;;;;;;23.57;39.87;100752.41;5000268;28;20052;-61
2021/11/01 09:30:26;;;;;;;32.20;18.75;;;;;;;23.19;37.35;100747.41;5016019;28;20057;-60
2021/11/01 09:42:08;;;;;;;26.05;18.45;;;;;;;22.80;40.18;100744.19;4963560;28;20642;-60
2021/11/01 09:44:54;;;;;;;29.48;18.80;;;;;;;21.61;42.89;100742.31;4982133;28;20057;-59
2021/11/01 09:47:43;;;;;;;23.83;16.65;;;;;;;22.08;41.98;100745.34;4964469;28;20230;-58
2021/11/01 09:50:29;;;;;;;23.27;16.55;;;;;;;22.26;41.44;100736.28;4982538;28;20112;-61
2021/11/01 09:53:22;;;;;;;23.33;16.23;;;;;;;22.48;40.95;100750.44;4982666;28;20060;-58
2021/11/01 09:59:12;;;;;;;25.98;16.77;;;;;;;22.08;40.08;100745.34;4983505;28;20053;-69
2021/11/01 10:02:00;;;;;;;32.13;17.98;;;;;;;21.84;40.08;100742.06;4968543;28;20539;-60
2021/11/01 10:04:49;;;;;;;25.85;17.42;;;;;;;21.91;41.71;100744.38;4983178;28;20142;-62
2021/11/01 10:07:35;;;;;;;27.90;17.02;;;;;;;22.83;39.27;100735.91;4965988;28;20057;-59
2021/11/01 10:10:21;;;;;;;31.15;17.35;;;;;;;24.33;34.68;100733.38;4967279;28;20537;-57
2021/11/01 10:13:16;;;;;;;29.15;16.75;;;;;;;25.34;33.12;100735.13;4965863;28;20061;-67
2021/11/01 10:19:05;;;;;;;29.00;16.40;;;;;;;23.62;33.53;100731.34;4992774;28;20044;-62
2021/11/01 10:21:52;;;;;;;25.55;17.02;;;;;;;24.45;32.83;100723.66;5010585;28;20124;-62
2021/11/01 10:24:41;;;;;;;27.10;17.23;;;;;;;24.13;33.81;100724.75;5000997;28;20079;-60
2021/11/01 10:27:36;;;;;;;23.42;15.45;;;;;;;25.21;32.56;100735.03;5017911;28;20191;-65
2021/11/01 10:30:25;;;;;;;25.25;18.13;;;;;;;24.88;31.52;100726.31;4999794;28;20063;-59
2021/11/01 10:33:11;;;;;;;28.70;17.30;;;;;;;25.62;31.73;100729.63;5002756;28;20049;-60
2021/11/01 10:35:56;;;;;;;29.98;18.55;;;;;;;26.29;29.90;100721.38;5006143;28;20053;-59
2021/11/01 10:38:43;;;;;;;28.80;17.85;;;;;;;25.99;30.16;100722.63;5000694;28;20091;-67
2021/11/01 10:41:43;;;;;;;28.60;19.63;;;;;;;24.33;31.67;100713.56;5006313;28;20099;-63
2021/11/01 10:56:24;;;;;;;31.60;19.65;;;;;;;25.74;31.53;100717.94;5014728;28;20053;-55
2021/11/01 11:13:08;;;;;;;32.63;19.05;;;;;;;25.84;30.41;100692.75;4999110;28;20057;-66
2021/11/01 11:15:57;;;;;;;25.50;16.98;;;;;;;26.29;29.42;100699.63;5015842;28;20057;-60
2021/11/01 11:19:01;;;;;;;30.35;17.65;;;;;;;23.65;33.81;100677.00;5002273;28;20064;-60
2021/11/01 11:28:39;;;;;;;28.58;18.40;;;;;;;21.81;42.94;100675.59;5002275;28;20392;-68
2021/11/01 11:40:38;;;;;;;29.85;18.33;;;;;;;22.26;41.03;100664.19;5005506;28;20057;-59
2021/11/01 11:43:37;;;;;;;28.90;17.95;;;;;;;21.98;41.74;100663.91;5018930;28;20084;-57
2021/11/01 11:49:33;;;;;;;25.55;17.33;;;;;;;20.02;49.25;100661.72;5005767;28;20057;-60
2021/11/01 11:52:24;;;;;;;31.80;19.17;;;;;;;20.04;49.99;100658.97;5000229;28;20410;-58
2021/11/01 11:55:29;;;;;;;30.35;18.15;;;;;;;19.72;53.22;100656.81;5019581;28;20060;-63
2021/11/01 11:58:18;;;;;;;28.45;18.77;;;;;;;19.05;55.47;100647.97;5018780;28;20532;-57
2021/11/01 12:01:39;;;;;;;28.42;17.10;;;;;;;19.70;54.89;100650.63;4981957;28;20055;-61
2021/11/01 12:04:31;;;;;;;27.13;18.08;;;;;;;19.77;53.58;100649.41;5023844;28;20048;-60
2021/11/01 12:07:18;;;;;;;30.00;17.27;;;;;;;20.00;52.89;100650.16;5024789;28;20103;-57
2021/11/01 12:19:27;;;;;;;20.23;13.20;;;;;;;18.87;56.36;100645.16;4968528;28;20530;-60
2021/11/01 12:22:28;;;;;;;22.95;14.05;;;;;;;18.98;54.71;100637.53;4988208;28;20057;-61
2021/11/01 12:25:20;;;;;;;23.25;12.95;;;;;;;18.38;55.58;100637.22;4952722;28;20068;-64
2021/11/01 12:28:15;;;;;;;20.80;12.32;;;;;;;18.36;57.67;100634.63;4978065;28;20097;-56
2021/11/01 12:31:02;;;;;;;18.65;11.82;;;;;;;18.64;56.65;100629.03;4992164;28;20553;-71
2021/11/01 12:37:01;;;;;;;19.52;12.07;;;;;;;18.62;56.76;100641.69;4912767;29;20416;-59
2021/11/01 12:39:54;;;;;;;18.35;13.02;;;;;;;18.16;58.96;100636.25;4928019;29;20062;-60
2021/11/01 12:46:26;;;;;;;39.40;20.85;;;;;;;18.02;60.69;100632.28;4915835;29;20075;-57
2021/11/01 12:49:11;;;;;;;33.10;17.90;;;;;;;18.13;62.37;100652.47;4978276;28;20113;-58
2021/11/01 12:58:23;;;;;;;23.20;15.40;;;;;;;17.61;61.91;100618.56;4958033;28;20573;-62
2021/11/01 13:01:11;;;;;;;34.10;18.23;;;;;;;17.33;65.78;100641.88;4964070;28;20134;-64
2021/11/01 13:04:15;;;;;;;29.45;17.00;;;;;;;17.31;69.56;100644.59;4954676;28;20157;-65
2021/11/01 13:19:22;;;;;;;24.30;14.30;;;;;;;15.72;83.44;100637.88;4981377;28;20526;-64
2021/11/01 13:22:15;;;;;;;22.70;13.90;;;;;;;15.60;85.28;100628.38;5003225;28;20052;-67
2021/11/01 13:25:22;;;;;;;28.95;17.17;;;;;;;15.54;87.33;100644.56;4980601;28;20084;-62
2021/11/01 13:37:21;;;;;;;39.95;20.38;;;;;;;14.26;100.00;100640.50;4986667;28;20105;-68
2021/11/01 13:40:16;;;;;;;30.80;17.23;;;;;;;14.23;100.00;100648.59;4986751;28;20069;-62
2021/11/01 13:43:02;;;;;;;31.80;16.77;;;;;;;14.09;100.00;100640.84;4984974;28;20076;-70
2021/11/01 13:45:52;;;;;;;29.17;16.77;;;;;;;14.22;100.00;100644.16;4982800;28;20288;-72
2021/11/01 13:48:37;;;;;;;31.70;17.55;;;;;;;13.96;100.00;100651.78;4994506;28;20152;-65
2021/11/01 13:51:22;;;;;;;33.88;16.67;;;;;;;13.60;100.00;100605.38;4994847;28;20046;-61
2021/11/01 13:54:14;;;;;;;29.08;16.45;;;;;;;13.83;100.00;100632.47;4983821;28;20133;-61
2021/11/01 13:57:04;;;;;;;35.13;17.70;;;;;;;13.93;100.00;100635.84;4965374;28;20053;-64
2021/11/01 14:00:08;;;;;;;31.48;18.13;;;;;;;13.89;100.00;100640.38;5006728;28;20145;-64
2021/11/01 14:03:12;;;;;;;31.75;17.98;;;;;;;13.96;100.00;100628.63;5016402;28;20152;-74
2021/11/01 15:09:50;;;;;;;80.63;31.58;;;;;;;11.93;100.00;100623.94;4949068;28;20058;-62
2021/11/01 15:21:32;;;;;;;116.07;37.45;;;;;;;11.83;100.00;100638.19;4955453;28;20496;-63
2021/11/01 15:33:57;;;;;;;92.15;38.65;;;;;;;11.71;100.00;100630.38;5000297;28;20080;-64
2021/11/01 15:40:08;;;;;;;126.25;44.00;;;;;;;11.47;100.00;100630.59;4984151;28;20128;-65
2021/11/01 16:19:53;;;;;;;122.43;46.92;;;;;;;10.56;100.00;100631.38;5014633;28;20049;-69
2021/11/01 16:22:40;;;;;;;136.45;51.58;;;;;;;10.52;100.00;100624.31;5000006;28;20048;-62
2021/11/01 16:25:27;;;;;;;162.80;55.25;;;;;;;10.43;100.00;100624.34;5000956;28;20052;-64
2021/11/01 16:28:15;;;;;;;164.77;56.47;;;;;;;10.43;100.00;100632.31;5021676;28;20080;-67
2021/11/01 16:31:21;;;;;;;144.65;53.38;;;;;;;10.35;100.00;100632.34;5022399;28;20102;-65
2021/11/01 16:40:03;;;;;;;78.93;39.38;;;;;;;9.94;100.00;100606.91;5027230;28;20044;-65
2021/11/01 16:42:49;;;;;;;97.95;43.90;;;;;;;9.94;100.00;100622.81;5022855;28;20049;-68
2021/11/01 16:45:36;;;;;;;102.28;45.22;;;;;;;9.89;100.00;100630.75;5007249;28;20764;-64
2021/11/01 16:48:22;;;;;;;118.53;51.50;;;;;;;9.87;100.00;100616.66;5026434;28;20047;-64
2021/11/01 16:51:07;;;;;;;121.22;49.85;;;;;;;9.93;100.00;100627.22;5006257;28;20062;-62
2021/11/01 16:53:52;;;;;;;129.57;48.28;;;;;;;9.95;100.00;100622.81;5025281;28;20048;-63
2021/11/01 17:05:58;;;;;;;120.05;48.30;;;;;;;9.91;100.00;100629.00;5024464;28;20052;-63
2021/11/01 17:27:39;;;;;;;103.65;45.72;;;;;;;9.77;100.00;100635.22;4999787;28;20532;-65
2021/11/01 17:36:25;;;;;;;116.53;45.40;;;;;;;9.63;100.00;100635.28;5011577;28;20421;-63
2021/11/01 18:44:17;;;;;;;152.23;53.60;;;;;;;8.48;100.00;100628.25;4956629;28;20052;-64
2021/11/01 18:53:24;;;;;;;159.70;57.75;;;;;;;8.56;100.00;100639.72;4952430;28;20102;-65
2021/11/01 18:56:12;;;;;;;162.35;56.50;;;;;;;8.30;100.00;100630.81;4964636;28;20057;-63
2021/11/01 18:59:05;;;;;;;115.50;49.63;;;;;;;8.10;100.00;100637.75;4969005;28;20096;-65
2021/11/01 19:05:02;;;;;;;133.93;51.97;;;;;;;8.00;100.00;100652.69;5022573;28;20044;-64
2021/11/01 19:14:17;;;;;;;154.45;56.78;;;;;;;7.80;100.00;100642.94;5016384;28;20664;-64
2021/11/01 20:06:06;;;;;;;63.05;36.70;;;;;;;7.37;100.00;100672.56;5008971;28;20041;-63
2021/11/01 20:09:25;;;;;;;68.40;38.40;;;;;;;7.29;100.00;100684.81;5014738;28;20107;-56
2021/11/01 21:26:06;;;;;;;46.17;30.58;;;;;;;6.36;100.00;100700.59;5024670;28;20056;-63
2021/11/01 21:28:51;;;;;;;45.17;29.58;;;;;;;6.30;100.00;100707.56;5024442;28;20056;-69
2021/11/01 21:31:36;;;;;;;47.85;31.45;;;;;;;6.19;100.00;100694.25;5025522;28;20798;-65
2021/11/01 21:34:32;;;;;;;46.80;30.08;;;;;;;6.26;100.00;100704.00;5026706;28;20107;-61
2021/11/01 21:37:17;;;;;;;75.53;36.50;;;;;;;6.26;100.00;100688.22;5009388;28;20425;-72
2021/11/01 21:40:09;;;;;;;64.50;36.33;;;;;;;6.17;100.00;100695.13;5023150;28;20175;-62
2021/11/01 21:42:54;;;;;;;62.55;32.30;;;;;;;6.05;100.00;100695.81;5008633;28;20123;-63
2021/11/01 21:45:40;;;;;;;60.80;34.05;;;;;;;6.13;100.00;100699.44;5009522;28;20079;-61
2021/11/01 21:48:25;;;;;;;59.03;33.55;;;;;;;6.11;100.00;100695.91;5024775;28;20087;-61
2021/11/01 21:51:14;;;;;;;59.65;34.10;;;;;;;6.06;100.00;100686.19;5008919;28;20076;-69
2021/11/01 21:54:08;;;;;;;57.97;34.55;;;;;;;6.02;100.00;100693.19;5007880;28;20091;-65
2021/11/01 21:57:02;;;;;;;58.83;35.00;;;;;;;5.87;100.00;100682.44;5018403;28;20192;-63
2021/11/01 22:24:22;;;;;;;51.28;31.40;;;;;;;5.50;100.00;100681.88;4943164;28;20549;-64
2021/11/01 22:39:21;;;;;;;56.30;32.88;;;;;;;5.46;100.00;100670.41;4941856;28;20624;-63
2021/11/01 22:42:30;;;;;;;59.25;34.28;;;;;;;5.43;100.00;100673.03;4930022;28;20523;-64
2021/11/01 22:48:37;;;;;;;64.18;35.55;;;;;;;5.10;100.00;100663.72;4904924;29;20424;-59
2021/11/01 22:57:30;;;;;;;79.03;31.67;;;;;;;4.60;100.00;100666.34;4959935;28;20122;-65
2021/11/01 23:00:22;;;;;;;66.32;33.15;;;;;;;4.39;100.00;100660.72;4960542;28;20137;-62
2021/11/01 23:03:15;;;;;;;64.55;33.40;;;;;;;4.36;100.00;100658.03;4942037;28;20085;-60
2021/11/01 23:33:22;;;;;;;82.50;40.72;;;;;;;4.78;100.00;100666.69;5022061;28;20531;-61
2021/11/01 23:36:08;;;;;;;84.55;39.97;;;;;;;4.87;100.00;100658.09;5020287;28;20137;-60
2021/11/01 23:38:53;;;;;;;88.25;38.25;;;;;;;4.92;100.00;100662.53;5014269;28;20052;-62
2021/11/01 23:41:43;;;;;;;81.95;38.70;;;;;;;4.81;100.00;100660.59;5002993;28;20133;-61
2021/11/01 23:44:28;;;;;;;75.45;36.25;;;;;;;4.84;100.00;100672.03;5017140;28;20045;-58
2021/11/01 23:47:14;;;;;;;83.07;37.75;;;;;;;4.79;100.00;100672.84;5005773;28;20103;-62
2021/11/01 23:49:59;;;;;;;70.00;36.03;;;;;;;4.67;100.00;100680.50;5004891;28;20095;-62
2021/11/01 23:52:55;;;;;;;69.07;33.70;;;;;;;4.64;100.00;100670.81;5025674;28;20188;-65
2021/11/01 23:55:41;;;;;;;77.53;35.83;;;;;;;4.72;100.00;100668.34;5025682;28;20540;-59
2021/11/01 23:58:26;;;;;;;65.50;32.35;;;;;;;4.73;100.00;100663.13;5010166;28;20099;-64
